Time;durP1;ratioP1;P1;durP2;ratioP2;P2;SDS_P1;SDS_P2;PMS_P1;PMS_P2;Temp;Humidity;BMP_temperature;BMP_pressure;BME280_temperature;BME280_humidity;BME280_pressure;Samples;Min_cycle;Max_cycle;Signal;HPM_P1;HPM_P2
2022/09/18 00:01:43;;;;;;;7.60;3.58;;;20.50;81.60;;;;;;1953927;73;21142;-59
2022/09/18 00:04:13;;;;;;;6.20;3.30;;;20.50;81.60;;;;;;1954201;73;20993;-59
2022/09/18 00:06:44;;;;;;;5.22;3.62;;;20.50;81.50;;;;;;1954163;73;20985;-60
2022/09/18 00:09:15;;;;;;;5.20;3.27;;;20.40;81.50;;;;;;1954220;73;21078;-59
2022/09/18 00:11:46;;;;;;;6.45;3.65;;;20.40;81.80;;;;;;1954021;73;21110;-59
2022/09/18 00:14:18;;;;;;;6.45;4.12;;;20.40;82.00;;;;;;1954073;73;21105;-59
2022/09/18 00:16:48;;;;;;;6.40;3.40;;;20.50;82.10;;;;;;1954120;73;21013;-59
2022/09/18 00:19:18;;;;;;;5.08;3.05;;;20.50;82.00;;;;;;1954000;73;21008;-59
2022/09/18 00:21:49;;;;;;;5.03;2.90;;;20.40;81.80;;;;;;1953906;73;21029;-59
2022/09/18 00:24:21;;;;;;;3.62;2.60;;;20.40;81.90;;;;;;1954141;73;21090;-59
2022/09/18 00:26:50;;;;;;;4.65;2.45;;;20.40;81.80;;;;;;1954116;73;21013;-60
2022/09/18 00:29:19;;;;;;;4.90;2.70;;;20.40;81.80;;;;;;1954056;73;21008;-59
2022/09/18 00:31:48;;;;;;;3.80;2.60;;;20.40;81.70;;;;;;1953986;73;21078;-59
2022/09/18 00:34:18;;;;;;;4.10;2.50;;;20.30;81.50;;;;;;1954198;73;21037;-59
2022/09/18 00:36:47;;;;;;;6.08;2.98;;;20.30;81.50;;;;;;1954104;73;20988;-59
2022/09/18 00:39:16;;;;;;;3.40;2.80;;;20.30;81.60;;;;;;1954138;73;21072;-60
2022/09/18 00:41:46;;;;;;;3.72;3.00;;;20.30;81.70;;;;;;1953961;73;21060;-60
2022/09/18 00:44:35;;;;;;;7.92;2.92;;;20.30;81.80;;;;;;1953984;73;21129;-60
2022/09/18 00:47:14;;;;;;;8.58;3.60;;;20.30;81.80;;;;;;1954070;73;21021;-59
2022/09/18 00:50:10;;;;;;;7.22;2.77;;;20.20;81.90;;;;;;1954045;72;21118;-59
2022/09/18 00:52:52;;;;;;;5.03;3.30;;;20.20;82.00;;;;;;1953976;73;21013;-59
2022/09/18 00:55:26;;;;;;;10.68;3.40;;;20.20;81.90;;;;;;1953785;72;21016;-59
2022/09/18 00:57:57;;;;;;;5.10;2.92;;;20.20;81.70;;;;;;1954216;73;21009;-59
2022/09/18 01:00:28;;;;;;;6.05;3.90;;;20.20;81.50;;;;;;1954131;73;21170;-59
2022/09/18 01:02:58;;;;;;;4.95;3.65;;;20.20;81.60;;;;;;1954033;73;21012;-59
2022/09/18 01:05:35;;;;;;;5.42;3.00;;;20.20;81.30;;;;;;1954232;73;20992;-59
2022/09/18 01:08:16;;;;;;;4.67;3.08;;;20.10;81.20;;;;;;1953122;73;21040;-59
2022/09/18 01:11:00;;;;;;;5.05;2.87;;;20.10;81.30;;;;;;1954232;73;21137;-59
2022/09/18 01:13:36;;;;;;;4.20;3.22;;;20.00;81.60;;;;;;1954682;73;21082;-59
2022/09/18 01:16:11;;;;;;;3.47;2.70;;;20.00;81.80;;;;;;1944444;73;21100;-59
2022/09/18 01:18:59;;;;;;;6.08;2.87;;;20.00;82.20;;;;;;1953736;73;21502;-59
2022/09/18 01:21:54;;;;;;;5.92;3.00;;;20.00;82.30;;;;;;1941099;73;21025;-59
2022/09/18 01:24:49;;;;;;;7.60;3.52;;;20.00;82.20;;;;;;1929242;73;21032;-59
2022/09/18 01:27:27;;;;;;;3.75;2.70;;;20.00;82.10;;;;;;1954354;73;21032;-59
2022/09/18 01:29:59;;;;;;;9.98;4.00;;;19.90;82.40;;;;;;1953999;73;21576;-59
2022/09/18 01:32:43;;;;;;;4.25;3.02;;;19.90;82.50;;;;;;1953895;72;21416;-59
2022/09/18 01:35:21;;;;;;;4.37;3.00;;;19.90;82.60;;;;;;1954184;73;21464;-60
2022/09/18 01:37:58;;;;;;;5.58;3.27;;;19.90;82.80;;;;;;1954181;73;21009;-59
2022/09/18 01:40:30;;;;;;;4.67;3.17;;;19.90;82.90;;;;;;1953685;73;21419;-59
2022/09/18 01:43:02;;;;;;;4.47;3.12;;;19.90;82.90;;;;;;1954134;73;21521;-58
2022/09/18 01:45:34;;;;;;;4.95;3.50;;;19.90;83.10;;;;;;1954009;73;21494;-58
2022/09/18 01:48:09;;;;;;;6.03;2.85;;;19.90;83.00;;;;;;1954121;73;21533;-58
2022/09/18 01:50:43;;;;;;;6.85;2.92;;;19.80;83.20;;;;;;1954044;72;21059;-59
2022/09/18 01:53:14;;;;;;;7.62;5.67;;;19.80;83.50;;;;;;1954217;73;20985;-59
2022/09/18 01:55:48;;;;;;;7.10;2.92;;;19.80;83.60;;;;;;1954108;73;21041;-59
2022/09/18 01:58:20;;;;;;;4.85;3.35;;;19.80;83.60;;;;;;1954243;73;21028;-59
2022/09/18 02:00:55;;;;;;;4.45;3.12;;;19.90;83.50;;;;;;1954134;73;21557;-59
2022/09/18 02:03:33;;;;;;;6.92;3.92;;;19.80;83.40;;;;;;1954243;73;21004;-59
2022/09/18 02:06:11;;;;;;;6.03;3.55;;;19.70;83.40;;;;;;1954067;72;21459;-58
2022/09/18 02:08:43;;;;;;;5.10;3.22;;;19.70;83.60;;;;;;1954046;72;21471;-58
2022/09/18 02:11:14;;;;;;;4.05;2.98;;;19.70;83.80;;;;;;1954132;73;21091;-58
2022/09/18 02:14:07;;;;;;;4.65;3.33;;;19.70;83.80;;;;;;1954122;73;21048;-59
2022/09/18 02:16:52;;;;;;;4.90;3.12;;;19.70;83.90;;;;;;1913125;73;21032;-59
2022/09/18 02:19:36;;;;;;;4.58;3.27;;;19.70;83.90;;;;;;1954106;73;21095;-60
2022/09/18 02:22:08;;;;;;;4.95;3.27;;;19.70;84.20;;;;;;1933670;73;21013;-59
2022/09/18 02:24:39;;;;;;;6.45;3.58;;;19.70;84.20;;;;;;1954122;73;21071;-59
2022/09/18 02:27:11;;;;;;;3.47;2.55;;;19.70;83.80;;;;;;1954071;73;21444;-60
2022/09/18 02:29:42;;;;;;;9.68;3.60;;;19.70;83.70;;;;;;1954267;73;21013;-59
2022/09/18 02:32:12;;;;;;;4.53;3.00;;;19.70;83.70;;;;;;1954076;73;21090;-59
2022/09/18 02:34:42;;;;;;;6.65;3.17;;;19.70;83.40;;;;;;1954071;73;20989;-59
2022/09/18 02:37:29;;;;;;;6.30;3.12;;;19.70;83.70;;;;;;1954069;73;21009;-59
2022/09/18 02:40:09;;;;;;;6.95;3.20;;;19.60;83.80;;;;;;1953620;72;21078;-59
2022/09/18 02:43:04;;;;;;;6.92;3.65;;;19.60;83.80;;;;;;1953216;72;21085;-59
2022/09/18 02:46:00;;;;;;;8.55;3.40;;;19.60;83.60;;;;;;1953104;72;21071;-59
2022/09/18 02:48:35;;;;;;;5.00;3.22;;;19.50;83.80;;;;;;1917873;73;21000;-59
2022/09/18 02:51:21;;;;;;;;;;;19.50;84.10;;;;;;1944944;72;21045;-59
2022/09/18 02:53:51;;;;;;;;;;;19.50;84.00;;;;;;1940884;74;20135;-59
2022/09/18 02:56:29;;;;;;;9.58;4.95;;;19.50;83.80;;;;;;1937874;74;20225;-59
2022/09/18 02:59:04;;;;;;;5.95;3.45;;;19.50;83.60;;;;;;1938139;74;21087;-60
2022/09/18 03:01:34;;;;;;;4.35;3.45;;;19.50;83.60;;;;;;1937948;74;21029;-59
2022/09/18 03:04:05;;;;;;;6.75;3.12;;;19.50;83.60;;;;;;1938060;74;21009;-59
2022/09/18 03:06:36;;;;;;;7.50;3.02;;;19.50;84.00;;;;;;1934941;72;21356;-60
2022/09/18 03:09:06;;;;;;;6.40;3.08;;;19.50;84.30;;;;;;1938078;74;21020;-60
2022/09/18 03:11:36;;;;;;;5.47;2.58;;;19.50;84.40;;;;;;1938085;74;21017;-59
2022/09/18 03:14:05;;;;;;;4.75;3.22;;;19.50;84.30;;;;;;1937991;74;21021;-59
2022/09/18 03:16:34;;;;;;;8.60;3.62;;;19.60;84.40;;;;;;1937963;74;21067;-59
2022/09/18 03:19:04;;;;;;;5.83;3.75;;;19.60;84.50;;;;;;1938107;74;21033;-59
2022/09/18 03:21:33;;;;;;;7.10;4.05;;;19.60;84.60;;;;;;1937929;74;21049;-59
2022/09/18 03:24:05;;;;;;;7.35;4.00;;;19.60;84.40;;;;;;1937725;72;21009;-59
2022/09/18 03:26:36;;;;;;;7.30;3.62;;;19.60;83.90;;;;;;1937851;72;20989;-59
2022/09/18 03:29:10;;;;;;;8.80;3.30;;;19.60;83.90;;;;;;1937939;74;21078;-59
2022/09/18 03:31:41;;;;;;;15.68;5.40;;;19.70;84.10;;;;;;1938098;74;21509;-59
2022/09/18 03:34:10;;;;;;;16.40;6.25;;;19.70;84.10;;;;;;1938092;74;21013;-60
2022/09/18 03:36:40;;;;;;;13.68;5.12;;;19.70;84.00;;;;;;1937954;74;21083;-60
2022/09/18 03:39:09;;;;;;;9.10;4.53;;;19.70;84.00;;;;;;1938088;74;21087;-59
2022/09/18 03:41:39;;;;;;;9.68;4.08;;;19.70;84.70;;;;;;1938003;73;21021;-59
2022/09/18 03:44:10;;;;;;;6.80;3.85;;;19.70;84.30;;;;;;1938034;73;20985;-60
2022/09/18 03:46:44;;;;;;;9.08;3.80;;;19.70;84.40;;;;;;1937925;74;21087;-60
2022/09/18 03:49:13;;;;;;;12.63;4.85;;;19.70;84.40;;;;;;1938005;74;21013;-59
2022/09/18 03:51:44;;;;;;;16.73;4.55;;;19.80;84.40;;;;;;1938541;72;21033;-60
2022/09/18 03:54:14;;;;;;;5.70;3.15;;;19.80;84.40;;;;;;1938175;74;21122;-60
2022/09/18 03:57:01;;;;;;;13.72;5.65;;;19.80;84.50;;;;;;1937931;74;21503;-60
2022/09/18 03:59:32;;;;;;;8.60;3.77;;;19.90;84.40;;;;;;1933052;74;21010;-59
2022/09/18 04:02:03;;;;;;;8.23;3.80;;;19.90;83.90;;;;;;1937094;73;21032;-59
2022/09/18 04:04:34;;;;;;;9.45;3.65;;;19.90;83.70;;;;;;1938183;73;21008;-60
2022/09/18 04:07:21;;;;;;;9.13;4.95;;;20.00;83.70;;;;;;1937902;74;20989;-60
2022/09/18 04:09:55;;;;;;;13.70;8.13;;;20.00;83.40;;;;;;1938133;73;20994;-60
2022/09/18 04:12:24;;;;;;;15.40;9.73;;;20.00;83.30;;;;;;1937951;73;21005;-60
2022/09/18 04:15:11;;;;;;;17.73;15.40;;;20.10;82.90;;;;;;1935799;74;21021;-60
2022/09/18 04:17:40;;;;;;;13.78;8.55;;;20.10;82.40;;;;;;1938045;74;21010;-60
2022/09/18 04:20:10;;;;;;;11.93;9.00;;;20.20;82.80;;;;;;1938048;74;21037;-60
2022/09/18 04:22:40;;;;;;;13.78;6.40;;;20.20;82.30;;;;;;1937958;74;21002;-60
2022/09/18 04:25:10;;;;;;;16.12;12.55;;;20.30;82.60;;;;;;1937974;74;21049;-60
2022/09/18 04:27:40;;;;;;;16.93;8.60;;;20.40;82.60;;;;;;1938051;73;21074;-60
2022/09/18 04:30:10;;;;;;;23.52;10.15;;;20.50;82.70;;;;;;1938027;74;21420;-60
2022/09/18 04:32:42;;;;;;;20.25;10.13;;;20.60;82.40;;;;;;1937982;74;21022;-58
2022/09/18 04:35:12;;;;;;;17.50;8.60;;;20.70;82.10;;;;;;1937923;73;21009;-58
2022/09/18 04:37:44;;;;;;;22.27;10.40;;;20.80;82.00;;;;;;1937895;74;21037;-59
2022/09/18 04:40:14;;;;;;;24.00;10.53;;;20.90;81.90;;;;;;1937405;72;21017;-59
2022/09/18 04:42:43;;;;;;;19.07;8.30;;;21.00;81.80;;;;;;1917130;74;21005;-59
2022/09/18 04:45:13;;;;;;;14.68;6.33;;;21.10;81.40;;;;;;1937895;74;20997;-59
2022/09/18 04:47:43;;;;;;;16.67;6.60;;;21.10;80.80;;;;;;1937921;74;21034;-59
2022/09/18 04:50:13;;;;;;;15.38;8.05;;;21.10;80.70;;;;;;1937871;74;21016;-58
2022/09/18 04:52:45;;;;;;;22.20;10.72;;;21.20;80.60;;;;;;1934656;72;21157;-59
2022/09/18 04:55:14;;;;;;;27.62;10.80;;;21.30;80.20;;;;;;1937911;74;21081;-59
2022/09/18 04:57:44;;;;;;;17.57;8.78;;;21.30;80.00;;;;;;1937883;74;21045;-59
2022/09/18 05:00:15;;;;;;;18.70;11.03;;;21.40;79.90;;;;;;1937905;74;21017;-59
2022/09/18 05:02:44;;;;;;;22.65;11.10;;;21.50;80.00;;;;;;1937652;74;21022;-59
2022/09/18 05:05:15;;;;;;;30.45;17.87;;;21.50;80.00;;;;;;1937845;74;20997;-59
2022/09/18 05:07:45;;;;;;;18.85;9.58;;;21.60;79.60;;;;;;1937983;73;20990;-59
2022/09/18 05:10:14;;;;;;;16.23;9.10;;;21.70;79.70;;;;;;1937911;74;21091;-59
2022/09/18 05:12:44;;;;;;;15.10;7.20;;;21.80;79.30;;;;;;1937883;74;21005;-58
2022/09/18 05:15:13;;;;;;;22.02;8.50;;;21.90;78.90;;;;;;1937755;74;20993;-59
2022/09/18 05:17:42;;;;;;;23.50;10.10;;;22.00;78.80;;;;;;1937872;74;21014;-59
2022/09/18 05:20:12;;;;;;;23.55;14.13;;;22.00;78.20;;;;;;1937822;73;21084;-59
2022/09/18 05:22:46;;;;;;;19.77;7.37;;;22.10;77.90;;;;;;1937746;74;21021;-59
2022/09/18 05:25:19;;;;;;;16.02;6.30;;;22.20;77.00;;;;;;1937659;73;21045;-59
2022/09/18 05:27:56;;;;;;;24.18;11.68;;;22.30;76.60;;;;;;1937583;73;21069;-59
2022/09/18 05:30:29;;;;;;;13.15;7.08;;;22.30;76.50;;;;;;1937629;73;21057;-58
2022/09/18 05:33:02;;;;;;;16.50;7.03;;;22.40;76.20;;;;;;1937918;74;21095;-59
2022/09/18 05:35:34;;;;;;;14.70;7.33;;;22.60;75.60;;;;;;1937927;74;21033;-58
2022/09/18 05:38:03;;;;;;;20.45;8.18;;;22.60;75.00;;;;;;1937880;74;21018;-59
2022/09/18 05:40:35;;;;;;;14.58;7.03;;;22.70;74.80;;;;;;1937985;74;21022;-59
2022/09/18 05:43:06;;;;;;;12.47;6.37;;;22.80;74.70;;;;;;1937809;74;21016;-59
2022/09/18 05:45:35;;;;;;;31.40;12.88;;;23.00;74.80;;;;;;1938032;74;21009;-59
2022/09/18 05:48:07;;;;;;;20.90;11.95;;;23.00;74.90;;;;;;1937136;72;21529;-59
2022/09/18 05:50:36;;;;;;;27.55;13.53;;;23.10;74.70;;;;;;1937935;74;21017;-59
2022/09/18 05:53:09;;;;;;;20.10;12.82;;;23.20;74.50;;;;;;1937769;72;21057;-59
2022/09/18 05:55:41;;;;;;;21.02;13.15;;;23.20;74.40;;;;;;1937127;74;21021;-59
2022/09/18 05:58:15;;;;;;;26.57;10.45;;;23.30;74.10;;;;;;1938063;74;21013;-59
2022/09/18 06:00:44;;;;;;;11.35;8.43;;;23.40;74.20;;;;;;1938146;74;21013;-59
2022/09/18 06:03:16;;;;;;;12.68;7.03;;;23.50;74.10;;;;;;1937985;74;21464;-59
2022/09/18 06:05:53;;;;;;;15.18;6.97;;;23.50;74.10;;;;;;1938041;74;21033;-59
2022/09/18 06:08:23;;;;;;;15.08;6.95;;;23.70;74.00;;;;;;1938093;74;21018;-59
2022/09/18 06:10:53;;;;;;;7.87;4.55;;;23.70;73.90;;;;;;1937955;74;21005;-59
2022/09/18 06:13:23;;;;;;;8.10;4.62;;;23.80;74.00;;;;;;1938115;74;21095;-59
2022/09/18 06:15:53;;;;;;;17.75;4.95;;;23.90;74.20;;;;;;1938101;74;21096;-59
2022/09/18 06:18:25;;;;;;;9.23;4.83;;;24.00;74.20;;;;;;1936819;73;21040;-58
2022/09/18 06:20:57;;;;;;;9.65;3.80;;;24.00;74.20;;;;;;1937667;72;20997;-59
2022/09/18 06:23:29;;;;;;;7.67;3.85;;;24.20;74.20;;;;;;1937927;72;21095;-59
2022/09/18 06:26:05;;;;;;;13.95;4.60;;;24.30;74.10;;;;;;1937016;72;21424;-59
2022/09/18 06:28:35;;;;;;;12.47;3.90;;;24.30;74.10;;;;;;1938080;74;21045;-58
2022/09/18 06:31:05;;;;;;;15.72;4.28;;;24.40;73.90;;;;;;1938072;74;20993;-59
2022/09/18 06:33:49;;;;;;;13.20;3.80;;;24.60;73.70;;;;;;1936587;72;21072;-58
2022/09/18 06:36:19;;;;;;;16.82;4.42;;;24.70;73.00;;;;;;1937893;74;21134;-59
2022/09/18 06:38:52;;;;;;;11.33;4.05;;;24.80;72.70;;;;;;1922394;73;21029;-59
2022/09/18 06:41:23;;;;;;;8.28;3.95;;;25.00;72.30;;;;;;1938018;74;21021;-59
2022/09/18 06:43:54;;;;;;;8.00;3.15;;;25.10;71.60;;;;;;1937648;73;21102;-59
2022/09/18 06:46:34;;;;;;;9.78;3.45;;;25.30;71.20;;;;;;1937673;74;21094;-59
2022/09/18 06:49:05;;;;;;;9.80;3.95;;;25.40;70.70;;;;;;1936244;74;21468;-59
2022/09/18 06:51:35;;;;;;;12.00;4.40;;;25.60;70.60;;;;;;1938174;74;21013;-59
2022/09/18 06:54:06;;;;;;;12.93;4.85;;;25.70;69.90;;;;;;1952339;72;21043;-59
2022/09/18 06:56:35;;;;;;;8.45;3.67;;;25.90;69.80;;;;;;1954330;73;21017;-58
2022/09/18 06:59:06;;;;;;;17.92;4.92;;;26.10;68.90;;;;;;1953985;73;21126;-59
2022/09/18 07:01:37;;;;;;;16.37;4.65;;;26.20;68.50;;;;;;1954067;73;21062;-59
2022/09/18 07:04:17;;;;;;;22.05;5.40;;;26.40;68.10;;;;;;1953381;73;21027;-59
2022/09/18 07:06:47;;;;;;;10.13;4.22;;;26.60;67.60;;;;;;1954179;73;21532;-59
2022/09/18 07:09:17;;;;;;;10.38;3.33;;;26.70;67.60;;;;;;1954212;73;21086;-59
2022/09/18 07:11:58;;;;;;;14.53;4.55;;;26.70;66.40;;;;;;1954117;73;21016;-59
2022/09/18 07:14:39;;;;;;;14.47;4.50;;;26.80;66.60;;;;;;1952792;72;21089;-60
2022/09/18 07:17:13;;;;;;;14.73;5.00;;;26.90;66.60;;;;;;1953797;73;21133;-60
2022/09/18 07:19:43;;;;;;;16.85;5.08;;;26.90;66.80;;;;;;1954116;73;21083;-60
2022/09/18 07:22:13;;;;;;;16.50;5.72;;;27.00;66.20;;;;;;1953900;72;21115;-60
2022/09/18 07:24:44;;;;;;;9.83;3.55;;;27.10;66.00;;;;;;1953781;73;21103;-60
2022/09/18 07:27:14;;;;;;;6.10;3.47;;;27.20;66.20;;;;;;1954034;73;21016;-60
2022/09/18 07:29:44;;;;;;;11.10;3.22;;;27.30;66.00;;;;;;1954020;73;21001;-60
2022/09/18 07:32:15;;;;;;;13.15;4.55;;;27.50;64.90;;;;;;1953840;72;21020;-60
2022/09/18 07:34:46;;;;;;;11.15;3.50;;;27.60;64.50;;;;;;1953988;73;21533;-60
2022/09/18 07:37:17;;;;;;;14.13;3.15;;;27.60;64.40;;;;;;1953073;73;21020;-60
2022/09/18 07:39:49;;;;;;;11.00;3.98;;;27.70;64.20;;;;;;1953208;72;21001;-60
2022/09/18 07:42:20;;;;;;;11.88;3.45;;;27.80;64.10;;;;;;1910094;73;21037;-60
2022/09/18 07:44:51;;;;;;;13.38;2.92;;;27.90;64.00;;;;;;1953529;73;21121;-60
2022/09/18 07:47:24;;;;;;;14.83;2.72;;;28.10;60.70;;;;;;1954025;73;21017;-61
2022/09/18 07:49:54;;;;;;;10.60;4.53;;;28.20;57.50;;;;;;1954077;73;21012;-60
2022/09/18 07:52:23;;;;;;;12.35;3.12;;;28.50;55.60;;;;;;1954172;73;21024;-60
2022/09/18 07:54:53;;;;;;;13.70;3.02;;;28.70;54.00;;;;;;1954005;72;21048;-61
2022/09/18 07:57:30;;;;;;;14.87;2.27;;;28.80;52.20;;;;;;1952657;72;21016;-61
2022/09/18 08:00:11;;;;;;;11.53;2.45;;;29.00;51.60;;;;;;1950294;73;21013;-60
2022/09/18 08:02:43;;;;;;;23.62;3.65;;;29.10;50.90;;;;;;1953947;73;21103;-61
2022/09/18 08:05:14;;;;;;;11.33;2.40;;;29.30;50.00;;;;;;1952697;73;21032;-60
2022/09/18 08:07:47;;;;;;;13.48;3.35;;;29.40;48.70;;;;;;1952038;72;21032;-61
2022/09/18 08:10:25;;;;;;;12.63;2.70;;;29.60;48.30;;;;;;1924133;73;21024;-61
2022/09/18 08:13:14;;;;;;;8.63;1.87;;;29.70;47.00;;;;;;1948925;73;21090;-61
2022/09/18 08:15:45;;;;;;;12.43;3.60;;;30.00;45.60;;;;;;1949863;72;21090;-61
2022/09/18 08:18:20;;;;;;;11.43;2.17;;;30.10;45.60;;;;;;1935210;73;21462;-61
2022/09/18 08:21:06;;;;;;;7.47;1.98;;;30.20;45.70;;;;;;1952267;72;21009;-61
2022/09/18 08:23:40;;;;;;;10.48;2.75;;;30.30;45.10;;;;;;1952289;72;21564;-61
2022/09/18 08:26:09;;;;;;;16.10;3.58;;;30.30;45.00;;;;;;1953892;73;21044;-61
2022/09/18 08:28:39;;;;;;;18.95;4.92;;;30.40;44.30;;;;;;1953882;73;21000;-61
2022/09/18 08:31:08;;;;;;;12.70;3.15;;;30.50;44.10;;;;;;1953879;73;21009;-61
2022/09/18 08:33:38;;;;;;;13.53;2.62;;;30.60;43.60;;;;;;1953970;73;21021;-61
2022/09/18 08:36:08;;;;;;;15.95;2.70;;;30.70;43.30;;;;;;1924882;73;21074;-62
2022/09/18 08:38:40;;;;;;;13.75;3.77;;;30.70;43.30;;;;;;1953614;73;21092;-62
2022/09/18 08:41:48;;;;;;;14.33;3.45;;;30.80;43.30;;;;;;1952164;73;21052;-61
2022/09/18 08:44:23;;;;;;;28.20;10.78;;;30.80;42.70;;;;;;1954075;73;21021;-61
2022/09/18 08:46:55;;;;;;;22.48;9.03;;;30.90;42.60;;;;;;1953441;73;21107;-61
2022/09/18 08:49:27;;;;;;;16.80;4.03;;;31.10;42.20;;;;;;1953881;73;21095;-61
2022/09/18 08:52:06;;;;;;;17.95;3.75;;;31.20;42.00;;;;;;1953947;72;21047;-62
2022/09/18 08:54:59;;;;;;;19.00;3.42;;;31.20;42.00;;;;;;1953407;72;21503;-61
2022/09/18 08:57:41;;;;;;;18.62;3.52;;;31.30;42.00;;;;;;1861420;77;21090;-60
2022/09/18 09:00:44;;;;;;;18.17;3.22;;;31.40;41.30;;;;;;1862757;77;21146;-61
2022/09/18 09:03:26;;;;;;;13.98;2.77;;;31.40;41.10;;;;;;1882311;74;21126;-61
2022/09/18 09:06:08;;;;;;;15.20;5.35;;;31.50;41.20;;;;;;1924981;73;21077;-61
2022/09/18 09:08:57;;;;;;;18.48;2.62;;;31.50;40.80;;;;;;1924152;73;21006;-61
2022/09/18 09:11:32;;;;;;;20.40;3.22;;;31.60;40.50;;;;;;1924316;74;21120;-61
2022/09/18 09:14:22;;;;;;;14.58;2.85;;;31.70;40.10;;;;;;1924974;74;21460;-61
2022/09/18 09:16:54;;;;;;;15.10;3.12;;;31.70;39.80;;;;;;1924121;73;21049;-62
2022/09/18 09:19:32;;;;;;;16.85;4.10;;;31.80;39.90;;;;;;1923548;73;21432;-62
2022/09/18 09:22:07;;;;;;;11.57;3.08;;;31.90;39.00;;;;;;1925138;73;21550;-62
2022/09/18 09:24:51;;;;;;;19.98;5.05;;;32.00;39.30;;;;;;1925066;74;21069;-62
2022/09/18 09:27:43;;;;;;;11.60;2.90;;;32.10;39.00;;;;;;1923324;74;21114;-62
2022/09/18 09:30:20;;;;;;;15.45;3.22;;;32.20;38.70;;;;;;1918483;73;21076;-62
2022/09/18 09:33:17;;;;;;;21.27;5.37;;;32.20;38.70;;;;;;1923752;73;21053;-62
2022/09/18 09:36:12;;;;;;;21.15;6.90;;;32.20;38.60;;;;;;1912918;74;21041;-62
2022/09/18 09:38:48;;;;;;;17.45;7.28;;;32.20;38.60;;;;;;1923487;74;21085;-62
2022/09/18 09:41:44;;;;;;;14.05;6.55;;;32.30;38.30;;;;;;1925007;73;21026;-62
2022/09/18 09:44:35;;;;;;;13.35;3.05;;;32.30;38.30;;;;;;1923733;74;21021;-62
2022/09/18 09:47:20;;;;;;;10.40;3.55;;;32.40;38.30;;;;;;1925117;74;21026;-62
2022/09/18 09:49:58;;;;;;;15.68;3.92;;;32.40;38.10;;;;;;1925408;74;21053;-62
2022/09/18 09:52:29;;;;;;;16.35;3.22;;;32.50;38.00;;;;;;1924709;73;21596;-62
2022/09/18 09:55:08;;;;;;;12.30;2.72;;;32.60;37.60;;;;;;1924054;73;21086;-62
2022/09/18 09:57:45;;;;;;;10.30;2.67;;;32.60;37.80;;;;;;1925073;74;21154;-62
2022/09/18 10:00:20;;;;;;;11.45;3.02;;;32.60;38.00;;;;;;1925017;74;21111;-62
2022/09/18 10:03:03;;;;;;;16.95;2.92;;;32.60;37.80;;;;;;1926639;74;21089;-62
2022/09/18 10:05:54;;;;;;;11.40;2.87;;;32.70;37.20;;;;;;1928682;74;21155;-62
2022/09/18 10:08:38;;;;;;;10.32;2.85;;;32.80;37.00;;;;;;1929367;74;21096;-62
2022/09/18 10:11:10;;;;;;;15.32;3.90;;;32.80;36.80;;;;;;1929369;74;21134;-62
2022/09/18 10:13:49;;;;;;;14.20;3.85;;;32.90;37.00;;;;;;1929178;74;21439;-62
2022/09/18 10:16:26;;;;;;;13.95;2.83;;;32.90;36.60;;;;;;1929341;74;21459;-62
2022/09/18 10:18:59;;;;;;;10.03;2.10;;;32.90;36.60;;;;;;1928695;74;21088;-62
2022/09/18 10:21:33;;;;;;;10.00;2.60;;;33.00;36.90;;;;;;1929172;74;21090;-62
2022/09/18 10:24:34;;;;;;;9.83;2.52;;;33.00;36.80;;;;;;1928978;74;21032;-62
2022/09/18 10:27:10;;;;;;;13.65;3.17;;;33.10;36.30;;;;;;1929072;73;21500;-62
2022/09/18 10:29:40;;;;;;;16.57;3.80;;;33.10;36.70;;;;;;1928590;73;21020;-62
2022/09/18 10:32:12;;;;;;;9.73;2.30;;;33.10;36.90;;;;;;1929208;74;21612;-61
2022/09/18 10:34:46;;;;;;;14.93;2.37;;;33.10;37.20;;;;;;1928936;74;21076;-61
2022/09/18 10:37:31;;;;;;;14.58;4.25;;;33.10;36.80;;;;;;1929425;74;21478;-61
2022/09/18 10:40:02;;;;;;;18.32;4.08;;;33.10;36.80;;;;;;1928009;74;21130;-61
2022/09/18 10:42:35;;;;;;;9.80;2.50;;;33.00;37.00;;;;;;1928995;74;21179;-61
2022/09/18 10:45:30;;;;;;;13.05;3.10;;;33.00;36.90;;;;;;1928394;74;21048;-61
2022/09/18 10:48:16;;;;;;;11.85;3.30;;;33.00;37.40;;;;;;1927665;74;21073;-61
2022/09/18 10:50:57;;;;;;;12.13;2.85;;;33.00;37.50;;;;;;1929064;74;21460;-61
2022/09/18 10:53:41;;;;;;;13.38;2.35;;;33.00;38.00;;;;;;1928050;74;21071;-61
2022/09/18 10:56:31;;;;;;;14.47;2.92;;;33.00;39.30;;;;;;1928186;74;21136;-61
2022/09/18 10:59:30;;;;;;;16.50;4.00;;;33.00;39.40;;;;;;1857065;77;21122;-61
2022/09/18 11:02:05;;;;;;;13.03;2.85;;;32.90;39.70;;;;;;1858136;77;21610;-62
2022/09/18 11:04:37;;;;;;;14.00;2.77;;;32.90;40.30;;;;;;1858122;77;21470;-62
2022/09/18 11:07:07;;;;;;;17.10;2.77;;;32.90;40.80;;;;;;1858244;77;21063;-62
2022/09/18 11:09:39;;;;;;;11.73;2.40;;;32.80;40.90;;;;;;1858096;77;21035;-63
2022/09/18 11:12:20;;;;;;;12.37;3.05;;;32.70;41.40;;;;;;1858350;77;21350;-62
2022/09/18 11:14:53;;;;;;;12.03;2.40;;;32.70;41.70;;;;;;1858251;77;21082;-62
2022/09/18 11:17:31;;;;;;;10.98;2.30;;;32.60;42.20;;;;;;1854007;76;21043;-62
2022/09/18 11:20:03;;;;;;;15.60;1.92;;;32.40;42.30;;;;;;1857964;77;21111;-63
2022/09/18 11:22:46;;;;;;;;;;;32.40;42.70;;;;;;1858730;77;21098;-62
2022/09/18 11:25:27;;;;;;;10.25;2.47;;;32.20;42.50;;;;;;1856270;77;20146;-62
2022/09/18 11:28:05;;;;;;;9.03;1.90;;;32.10;43.00;;;;;;1857291;77;21169;-63
2022/09/18 11:30:38;;;;;;;6.72;2.08;;;32.00;43.30;;;;;;1855776;77;21067;-63
2022/09/18 11:33:17;;;;;;;18.30;3.77;;;31.90;43.20;;;;;;1857639;77;21072;-63
2022/09/18 11:35:49;;;;;;;26.52;3.42;;;31.90;43.50;;;;;;1857464;76;21120;-62
2022/09/18 11:38:19;;;;;;;25.45;4.20;;;31.80;43.90;;;;;;1858065;77;21172;-62
2022/09/18 11:40:51;;;;;;;14.28;2.90;;;31.70;44.20;;;;;;1857984;77;21127;-62
2022/09/18 11:43:31;;;;;;;11.08;2.62;;;31.70;44.60;;;;;;1857892;77;21070;-62
2022/09/18 11:46:38;;;;;;;8.23;2.62;;;31.60;44.90;;;;;;1858034;77;21137;-62
2022/09/18 11:49:26;;;;;;;12.43;3.05;;;31.50;45.20;;;;;;1858028;77;21075;-62
2022/09/18 11:52:01;;;;;;;15.23;2.67;;;31.40;45.30;;;;;;1858123;77;21036;-62
2022/09/18 11:54:43;;;;;;;15.63;2.95;;;31.40;45.20;;;;;;1856191;77;21090;-62
2022/09/18 11:57:18;;;;;;;14.75;2.72;;;31.40;45.30;;;;;;1858134;77;21043;-62
2022/09/18 11:59:56;;;;;;;10.88;2.67;;;31.40;45.60;;;;;;1866383;77;21540;-62
2022/09/18 12:02:37;;;;;;;11.70;2.65;;;31.40;45.90;;;;;;1905485;75;21029;-62
2022/09/18 12:05:30;;;;;;;9.13;3.27;;;31.30;46.10;;;;;;1889984;76;21081;-62
2022/09/18 12:08:08;;;;;;;8.75;2.22;;;31.30;46.50;;;;;;1889690;76;21116;-62
2022/09/18 12:10:57;;;;;;;10.05;2.77;;;31.10;46.80;;;;;;1889151;76;21096;-62
2022/09/18 12:13:45;;;;;;;12.15;2.62;;;31.00;46.90;;;;;;1889980;76;21046;-62
2022/09/18 12:16:23;;;;;;;11.35;3.22;;;30.90;47.00;;;;;;1889530;76;21460;-62
2022/09/18 12:19:06;;;;;;;13.50;3.02;;;30.80;47.30;;;;;;1877698;76;21049;-62
2022/09/18 12:22:03;;;;;;;10.50;2.50;;;30.70;47.60;;;;;;1889798;76;21124;-62
2022/09/18 12:24:34;;;;;;;16.77;2.70;;;30.70;47.80;;;;;;1888989;73;21043;-62
2022/09/18 12:27:24;;;;;;;11.53;2.75;;;30.70;48.10;;;;;;1924635;73;21027;-62
2022/09/18 12:30:16;;;;;;;13.43;2.70;;;30.80;48.30;;;;;;1916770;74;21043;-62
2022/09/18 12:33:03;;;;;;;11.43;1.70;;;30.90;48.20;;;;;;1924802;73;21011;-62
2022/09/18 12:35:46;;;;;;;12.68;3.27;;;30.90;48.10;;;;;;1924431;73;21478;-63
2022/09/18 12:38:44;;;;;;;17.85;3.40;;;30.90;48.20;;;;;;1924849;73;21051;-63
2022/09/18 12:41:40;;;;;;;12.50;3.00;;;30.90;48.40;;;;;;1917809;74;21003;-62
2022/09/18 12:44:30;;;;;;;9.38;2.58;;;30.90;48.40;;;;;;1924315;74;21513;-62
2022/09/18 12:47:32;;;;;;;12.60;2.77;;;30.90;48.30;;;;;;1923507;74;21079;-63
2022/09/18 12:50:27;;;;;;;11.68;2.67;;;30.90;48.20;;;;;;1924563;73;21063;-63
2022/09/18 12:53:02;;;;;;;12.25;3.02;;;30.90;48.10;;;;;;1924831;73;21027;-63
2022/09/18 12:55:57;;;;;;;12.93;2.60;;;30.90;48.00;;;;;;1924029;74;21031;-63
2022/09/18 12:58:44;;;;;;;12.58;3.15;;;30.90;48.10;;;;;;1924779;73;21029;-63
2022/09/18 13:01:19;;;;;;;15.00;3.15;;;30.90;48.00;;;;;;1924734;74;21173;-62
2022/09/18 13:03:50;;;;;;;16.55;2.55;;;30.80;48.00;;;;;;1919511;74;21497;-61
2022/09/18 13:06:22;;;;;;;12.00;2.60;;;30.70;48.20;;;;;;1924678;74;21031;-62
2022/09/18 13:08:57;;;;;;;10.08;2.95;;;30.60;48.50;;;;;;1924640;73;21112;-62
2022/09/18 13:11:44;;;;;;;13.90;2.90;;;30.60;48.80;;;;;;1924792;74;21007;-61
2022/09/18 13:14:19;;;;;;;15.05;3.80;;;30.50;49.00;;;;;;1924817;74;21106;-61
2022/09/18 13:16:54;;;;;;;11.88;2.62;;;30.60;49.00;;;;;;1923552;74;21016;-63
2022/09/18 13:19:35;;;;;;;13.10;3.02;;;30.60;48.90;;;;;;1924322;74;21039;-63
2022/09/18 13:22:07;;;;;;;11.57;3.35;;;30.60;48.80;;;;;;1924489;74;21129;-63
2022/09/18 13:24:40;;;;;;;14.78;3.05;;;30.60;48.50;;;;;;1924822;74;21071;-64
2022/09/18 13:27:14;;;;;;;8.88;2.90;;;30.60;48.30;;;;;;1924715;73;20999;-64